Terminal Aerodrome Forecast
Issued by NWS

Home | Current Version | Previous Version | Text Only | Print | Product List | Glossary On
Versions: 1 2 3 4 5 6 7 8 9 10 11 12 13 14
000
FTUS44 KLZK 242334
TAFHOT
TAF
KHOT 242334Z 2500/2524 VRB05KT P6SM VCSH SCT050
     FM250200 VRB04KT P6SM SCT250
     FM251000 VRB03KT 5SM BR FEW020 SCT250
     FM251300 14006KT P6SM FEW050
     FM251900 15009G16KT P6SM VCTS SCT050CB SCT250=

USA.gov is the U.S. government's official web portal to all federal, state and local government web resources and services.